Latest Weather Observations for Sydney - Observatory Hill

IDN60801

Issued at 5:05 pm EDT Monday 24 November 2014 (issued every 30 minutes, with the page automatically refreshed every 10 minutes)

About weather observations | Map of weather stations | Latest weather observations for NSW | Other Formats
Station Details ID: 066062 Name: SYDNEY (OBSERVATORY HILL) Lat: -33.86 Lon: 151.21 Height: 39.0 m
Data from the previous 72 hours. | See also: Recent months at Sydney - Observatory Hill

* Apparent temperature (App Temp) for Sydney - Observatory Hill is calculated using temperature observations collected at Sydney - Observatory Hill and wind observations collected at Fort Denison, as wind observations are not currently provided for Sydney - Observatory Hill.

Date/Time
EDT
Temp
°C
App
Temp
°C
Dew
Point
Rel
Hum
%
Delta-T
°C
Wind Press
QNH
hPa
Press
MSL
hPa
Rain
since 9 am
mm
Dir
 
Spd
km/h
Gust
km/h
Spd
kts
Gust
kts
24/05:00pm 23.5 25.1 21.4 88 1.4 SE 15 - 8 - 1007.8 1007.7 1.4
24/04:30pm 22.8 23.1 20.5 87 1.5 E 19 - 10 - 1007.8 1007.7 1.4
24/04:00pm 22.8 25.8 20.0 84 1.8 SE 4 - 2 - 1009.8 1009.7 0.0
24/03:47pm 22.4 - 19.2 82 2.0 - - - - - 1009.4 1009.3 0.0
24/03:30pm 22.9 22.2 19.5 81 2.2 E 22 - 12 - 1007.3 1007.2 0.0
24/03:00pm 23.6 21.6 19.1 76 2.9 E 28 - 15 - 1007.5 1007.4 0.0
24/02:30pm 24.8 23.2 19.2 71 3.6 E 26 - 14 - 1008.0 1007.9 0.0
24/02:00pm 25.8 24.6 18.5 64 4.7 E 22 - 12 - 1009.0 1008.9 0.0
24/01:30pm 25.6 24.3 17.3 60 5.2 E 20 - 11 - 1009.5 1009.4 0.0
24/01:00pm 27.4 25.3 16.1 50 7.0 E 22 - 12 - 1010.2 1010.1 0.0
24/12:30pm 27.6 26.6 16.6 51 6.8 E 17 - 9 - 1010.6 1010.5 0.0
24/12:00pm 29.4 28.1 16.9 47 7.9 E 19 - 10 - 1011.1 1011.0 0.0
24/11:30am 29.0 29.9 16.2 46 8.0 NE 6 - 3 - 1012.3 1012.2 0.0
24/11:00am 28.0 29.1 16.6 50 7.1 S 6 - 3 - 1013.0 1012.9 0.0
24/10:30am 26.4 27.5 17.2 57 5.8 WNW 7 - 4 - 1013.6 1013.5 0.0
24/10:00am 25.3 26.2 16.2 57 5.6 SW 6 - 3 - 1014.3 1014.2 0.0
24/09:30am 26.3 27.5 17.4 58 5.6 S 7 - 4 - 1014.4 1014.3 0.0
24/09:00am 23.5 25.1 17.9 71 3.5 S 6 - 3 - 1015.1 1015.0 0.0
24/08:30am 22.1 22.9 18.1 78 2.5 ESE 11 - 6 - 1015.1 1015.0 0.0
24/08:00am 21.7 22.2 18.3 81 2.1 SSE 13 - 7 - 1014.8 1014.7 0.0
24/07:30am 21.6 20.9 18.6 83 1.9 E 20 - 11 - 1014.5 1014.4 0.0
24/07:00am 21.6 21.0 18.8 84 1.8 E 20 - 11 - 1014.5 1014.4 0.0
24/06:30am 21.4 20.6 18.4 83 1.9 ESE 20 - 11 - 1014.1 1014.0 0.0
24/06:00am 21.3 21.0 18.3 83 1.9 ESE 17 - 9 - 1013.6 1013.5 0.0
24/05:30am 21.3 22.5 18.3 83 1.9 ESE 9 - 5 - 1013.1 1013.0 0.0
24/05:00am 21.3 21.9 18.7 85 1.6 SSE 13 - 7 - 1012.4 1012.3 0.0
24/04:30am 21.3 22.4 18.9 86 1.5 S 11 - 6 - 1012.1 1012.0 0.0
24/04:00am 21.3 22.3 18.7 85 1.6 SSE 11 - 6 - 1011.9 1011.8 0.0
24/03:30am 21.3 23.0 18.5 84 1.8 SSW 7 - 4 - 1011.7 1011.6 0.0
24/03:00am 21.4 22.4 18.6 84 1.8 SSW 11 - 6 - 1011.8 1011.7 0.0
24/02:30am 21.5 22.8 18.5 83 1.9 SSE 9 - 5 - 1012.2 1012.1 0.0
24/02:00am 21.8 22.9 18.8 83 1.9 S 11 - 6 - 1012.7 1012.6 0.0
24/01:30am 21.8 23.3 19.0 84 1.8 SW 9 - 5 - 1013.2 1013.1 0.0
24/01:00am 21.9 23.0 18.9 83 1.9 S 11 - 6 - 1013.3 1013.2 0.0
24/12:30am 22.2 24.2 19.2 83 1.9 S 7 - 4 - 1013.5 1013.4 0.0
24/12:00am 22.3 24.9 19.3 83 1.9 E 4 - 2 - 1013.8 1013.7 0.0
 
Date/Time
EDT
Temp
°C
App
Temp
°C
Dew
Point
Rel
Hum
%
Delta-T
°C
Wind Press
QNH
hPa
Press
MSL
hPa
Rain
since 9 am
mm
Dir
 
Spd
km/h
Gust
km/h
Spd
kts
Gust
kts
23/11:30pm 22.2 24.3 19.0 82 2.0 SSW 6 - 3 - 1014.1 1014.0 0.0
23/11:00pm 22.2 24.3 19.0 82 2.0 SSE 6 - 3 - 1013.6 1013.5 0.0
23/10:30pm 22.2 24.0 18.8 81 2.1 S 7 - 4 - 1013.7 1013.6 0.0
23/10:00pm 22.4 24.2 18.8 80 2.3 SSE 7 - 4 - 1013.5 1013.4 0.0
23/09:30pm 22.7 24.7 19.1 80 2.3 SE 7 - 4 - 1013.9 1013.8 0.0
23/09:00pm 22.4 21.1 19.0 81 2.2 SSE 24 - 13 - 1012.9 1012.8 0.0
23/08:30pm 22.4 21.4 19.6 84 1.8 S 24 - 13 - 1013.4 1013.3 0.0
23/08:18pm 22.3 - 19.5 84 1.8 - - - - - 1013.7 1013.6 0.0
23/08:00pm 22.3 21.5 19.3 83 1.9 SSE 22 - 12 - 1011.6 1011.5 0.0
23/07:30pm 22.6 22.3 19.2 81 2.2 SSE 19 - 10 - 1011.5 1011.4 0.0
23/07:28pm 22.6 - 19.2 81 2.2 - - - - - 1011.4 1011.3 0.0
23/07:00pm 22.9 21.3 19.1 79 2.4 SSE 26 - 14 - 1009.4 1009.3 0.0
23/06:30pm 23.8 23.1 19.5 77 2.8 SE 22 - 12 - 1008.5 1008.4 0.0
23/06:00pm 24.6 24.2 20.1 76 2.9 ESE 22 - 12 - 1008.2 1008.1 0.0
23/05:30pm 24.2 24.3 20.3 79 2.5 E 20 - 11 - 1007.8 1007.7 0.0
23/05:00pm 23.6 24.2 20.3 82 2.1 ESE 17 - 9 - 1007.1 1007.0 0.0
23/04:30pm 26.5 24.4 18.9 63 4.9 ESE 28 - 15 - 1008.3 1008.2 0.0
23/04:00pm 29.3 27.5 18.7 52 6.9 ESE 26 - 14 - 1007.3 1007.2 0.0
23/03:30pm 28.9 28.1 19.2 55 6.3 E 22 - 12 - 1007.2 1007.1 0.0
23/03:00pm 28.9 27.8 18.7 54 6.6 E 22 - 12 - 1007.5 1007.4 0.0
23/02:30pm 27.1 26.5 18.4 59 5.6 E 19 - 10 - 1008.2 1008.1 0.0
23/02:00pm 25.8 24.1 18.2 63 4.8 E 24 - 13 - 1008.5 1008.4 0.0
23/01:30pm 25.9 25.0 19.1 66 4.4 ESE 22 - 12 - 1008.9 1008.8 0.0
23/01:00pm 25.8 25.4 19.0 66 4.4 E 19 - 10 - 1009.6 1009.5 0.0
23/12:30pm 25.0 24.7 19.1 70 3.8 E 19 - 10 - 1010.0 1009.9 0.0
23/12:00pm 25.8 25.4 19.0 66 4.4 E 19 - 10 - 1010.6 1010.5 0.0
23/11:30am 25.5 25.1 19.4 69 3.9 E 20 - 11 - 1011.0 1010.9 0.0
23/11:00am 25.3 24.8 19.0 68 4.0 E 20 - 11 - 1011.3 1011.2 0.0
23/10:30am 27.2 26.7 19.0 61 5.3 E 20 - 11 - 1011.3 1011.2 0.0
23/10:00am 26.8 25.7 16.4 53 6.4 E 17 - 9 - 1011.3 1011.2 0.0
23/09:30am 27.0 27.9 17.5 56 6.0 E 9 - 5 - 1011.6 1011.5 0.0
23/09:00am 24.9 26.6 17.1 62 4.8 E 4 - 2 - 1011.6 1011.5 0.0
23/08:30am 24.0 26.1 18.0 69 3.8 E 4 - 2 - 1011.5 1011.4 0.0
23/08:00am 22.1 24.0 17.7 76 2.7 SSE 4 - 2 - 1011.3 1011.2 0.0
23/07:30am 20.7 22.6 18.5 87 1.4 N 6 - 3 - 1011.3 1011.2 0.0
23/07:00am 19.9 22.3 18.0 89 1.2 NE 2 - 1 - 1011.2 1011.1 0.0
23/06:30am 19.8 21.5 18.1 90 1.1 N 6 - 3 - 1011.0 1010.9 0.0
23/06:00am 19.7 21.3 17.8 89 1.2 NNW 6 - 3 - 1011.2 1011.1 0.0
23/05:30am 19.7 20.8 18.0 90 1.1 N 9 - 5 - 1010.7 1010.6 0.0
23/05:00am 19.9 20.7 18.2 90 1.1 N 11 - 6 - 1010.8 1010.7 0.0
23/04:30am 19.8 21.2 17.9 89 1.2 NNW 7 - 4 - 1010.6 1010.5 0.0
23/04:00am 20.1 21.7 18.2 89 1.2 NNE 7 - 4 - 1010.5 1010.4 0.0
23/03:30am 20.0 21.5 18.0 88 1.2 N 7 - 4 - 1010.9 1010.8 0.0
23/03:00am 19.8 21.7 17.6 87 1.4 NE 4 - 2 - 1011.0 1010.9 0.0
23/02:30am 19.9 21.3 17.7 87 1.4 N 7 - 4 - 1011.1 1011.0 0.0
23/02:00am 20.1 21.5 17.9 87 1.4 N 7 - 4 - 1011.6 1011.5 0.0
23/01:30am 20.3 22.3 17.9 86 1.5 N 4 - 2 - 1011.9 1011.8 0.0
23/01:00am 20.5 22.6 18.1 86 1.5 NNW 4 - 2 - 1012.3 1012.2 0.0
23/12:30am 20.7 22.2 18.1 85 1.6 WNW 7 - 4 - 1012.4 1012.3 0.0
23/12:00am 20.9 22.0 18.1 84 1.7 N 9 - 5 - 1012.9 1012.8 0.0
 
Date/Time
EDT
Temp
°C
App
Temp
°C
Dew
Point
Rel
Hum
%
Delta-T
°C
Wind Press
QNH
hPa
Press
MSL
hPa
Rain
since 9 am
mm
Dir
 
Spd
km/h
Gust
km/h
Spd
kts
Gust
kts
22/11:30pm 21.3 22.6 18.5 84 1.8 NNE 9 - 5 - 1012.9 1012.8 0.0
22/11:00pm 21.4 23.1 18.4 83 1.9 N 7 - 4 - 1013.2 1013.1 0.0
22/10:30pm 21.5 22.8 18.5 83 1.9 NE 9 - 5 - 1013.5 1013.4 0.0
22/10:00pm 21.5 22.8 18.5 83 1.9 NE 9 - 5 - 1013.6 1013.5 0.0
22/09:30pm 21.5 22.0 18.3 82 2.0 NNE 13 - 7 - 1013.5 1013.4 0.0
22/09:00pm 21.4 22.3 18.4 83 1.9 NE 11 - 6 - 1013.0 1012.9 0.0
22/08:30pm 21.3 22.5 18.3 83 1.9 NE 9 - 5 - 1012.5 1012.4 0.0
22/08:00pm 21.3 21.4 18.3 83 1.9 ENE 15 - 8 - 1012.1 1012.0 0.0
22/07:30pm 21.4 21.0 18.0 81 2.1 ENE 17 - 9 - 1012.0 1011.9 0.0
22/07:00pm 21.3 20.4 17.7 80 2.2 ENE 19 - 10 - 1011.4 1011.3 0.0
22/06:30pm 21.8 21.3 17.8 78 2.5 E 17 - 9 - 1011.6 1011.5 0.0
22/06:00pm 21.6 20.1 17.6 78 2.5 E 22 - 12 - 1011.0 1010.9 0.0
22/05:30pm 22.3 21.1 17.4 74 3.0 E 20 - 11 - 1011.1 1011.0 0.0
22/05:00pm 23.0 21.8 17.5 71 3.4 E 20 - 11 - 1011.0 1010.9 0.0
22/04:30pm 23.2 21.1 16.3 65 4.2 E 22 - 12 - 1011.1 1011.0 0.0
22/04:00pm 23.8 22.0 16.1 62 4.7 E 20 - 11 - 1011.0 1010.9 0.0
22/03:30pm 22.9 20.7 15.0 61 4.7 E 20 - 11 - 1011.2 1011.1 0.0
22/03:00pm 23.4 21.5 15.2 60 4.9 E 19 - 10 - 1011.6 1011.5 0.0
22/02:30pm 24.1 21.7 15.3 58 5.3 ESE 22 - 12 - 1012.1 1012.0 0.0
22/02:00pm 24.0 22.1 15.2 58 5.3 E 19 - 10 - 1012.7 1012.6 0.0
22/01:30pm 24.1 21.8 14.2 54 5.8 ESE 19 - 10 - 1013.0 1012.9 0.0
22/01:00pm 24.0 22.0 15.0 57 5.4 E 19 - 10 - 1013.5 1013.4 0.0
22/12:30pm 24.0 22.0 13.8 53 6.0 ESE 17 - 9 - 1014.0 1013.9 0.0
22/12:00pm 24.7 22.8 14.2 52 6.2 E 17 - 9 - 1014.3 1014.2 0.0
22/11:30am 25.3 24.6 13.2 47 7.1 E 9 - 5 - 1014.9 1014.8 0.0
22/11:00am 23.9 21.7 13.4 51 6.1 E 17 - 9 - 1015.0 1014.9 0.0
22/10:30am 24.0 22.7 13.8 53 6.0 E 13 - 7 - 1015.6 1015.5 0.0
22/10:00am 23.6 23.3 13.2 52 6.0 ENE 7 - 4 - 1016.2 1016.1 0.0
22/09:30am 23.1 22.6 12.7 52 6.0 E 7 - 4 - 1016.2 1016.1 0.0
22/09:00am 23.6 22.7 12.6 50 6.3 SE 9 - 5 - 1016.0 1015.9 0.0
22/08:30am 22.5 22.0 12.7 54 5.6 SSE 7 - 4 - 1015.8 1015.7 0.0
22/08:00am 21.6 20.0 11.6 53 5.6 SSE 11 - 6 - 1016.2 1016.1 0.0
22/07:30am 20.5 19.3 13.9 66 3.8 SSE 13 - 7 - 1015.9 1015.8 0.0
22/07:00am 19.9 19.3 14.7 72 3.0 SSE 11 - 6 - 1015.7 1015.6 0.0
22/06:30am 19.3 19.1 14.6 74 2.7 SSE 9 - 5 - 1015.4 1015.3 0.0
22/06:00am 19.3 19.5 14.8 75 2.6 S 7 - 4 - 1015.0 1014.9 0.0
22/05:30am 19.2 18.6 14.7 75 2.6 S 11 - 6 - 1014.7 1014.6 0.0
22/05:00am 19.3 18.8 14.8 75 2.6 S 11 - 6 - 1014.1 1014.0 0.0
22/04:30am 19.5 18.7 15.2 76 2.5 S 13 - 7 - 1014.0 1013.9 0.0
22/04:00am 19.7 18.5 15.1 75 2.7 S 15 - 8 - 1013.9 1013.8 0.0
22/03:30am 19.8 18.6 15.0 74 2.8 S 15 - 8 - 1013.9 1013.8 0.0
22/03:00am 20.1 19.0 15.3 74 2.8 S 15 - 8 - 1014.1 1014.0 0.0
22/02:30am 20.4 19.0 15.6 74 2.9 S 17 - 9 - 1014.1 1014.0 0.0
22/02:00am 20.4 18.7 15.8 75 2.7 S 19 - 10 - 1014.2 1014.1 0.0
22/01:30am 20.5 18.9 15.9 75 2.8 S 19 - 10 - 1014.3 1014.2 0.0
22/01:00am 20.6 19.4 16.0 75 2.8 S 17 - 9 - 1014.3 1014.2 0.0
22/12:30am 20.7 19.1 16.1 75 2.8 S 19 - 10 - 1014.4 1014.3 0.0
22/12:00am 20.7 18.9 16.1 75 2.8 S 20 - 11 - 1014.4 1014.3 0.0
 
Date/Time
EDT
Temp
°C
App
Temp
°C
Dew
Point
Rel
Hum
%
Delta-T
°C
Wind Press
QNH
hPa
Press
MSL
hPa
Rain
since 9 am
mm
Dir
 
Spd
km/h
Gust
km/h
Spd
kts
Gust
kts
21/11:30pm 21.0 19.5 16.4 75 2.8 S 19 - 10 - 1014.3 1014.2 0.0
21/11:00pm 21.3 19.1 16.9 76 2.7 S 24 - 13 - 1013.9 1013.8 0.0
21/10:30pm 21.5 19.9 17.5 78 2.5 S 22 - 12 - 1013.4 1013.3 0.0
21/10:00pm 21.6 21.4 17.6 78 2.5 S 15 - 8 - 1013.1 1013.0 0.0
21/09:30pm 21.6 19.3 17.6 78 2.5 S 26 - 14 - 1012.3 1012.2 0.0
21/09:00pm 22.0 18.9 17.6 76 2.7 S 30 - 16 - 1011.6 1011.5 0.0
21/08:30pm 22.3 19.0 17.0 72 3.3 S 30 - 16 - 1010.9 1010.8 0.0
21/08:00pm 22.8 19.0 16.8 69 3.7 S 32 - 17 - 1010.0 1009.9 0.0
21/07:30pm 23.2 20.1 17.4 70 3.6 S 30 - 16 - 1009.4 1009.3 0.0
21/07:00pm 23.8 21.3 18.0 70 3.6 SSE 28 - 15 - 1008.7 1008.6 0.0
21/06:30pm 25.2 22.9 18.4 66 4.3 S 28 - 15 - 1007.6 1007.5 0.0
21/06:00pm 29.0 28.3 18.7 53 6.7 SSE 20 - 11 - 1006.5 1006.4 0.0
21/05:30pm 28.4 29.3 18.5 55 6.4 E 11 - 6 - 1005.6 1005.5 0.0

Other Formats:

Comma delimited format used in spreadsheet applications
http://www.bom.gov.au/fwo/IDN60801/IDN60801.94768.axf

JavaScript Object Notation format (JSON) in row-major order
http://www.bom.gov.au/fwo/IDN60801/IDN60801.94768.json